Main page
METAR-TAF:

METAR-TAF

Airports :

Sleipner, Norway

Oil platform

latitude: 58-22-00N, longitude: 001-54-25E, elevation: 50 m

Current weather observation

The report was made 32 minutes ago, at 04:20 UTC
Wind 33 kt from the East/Southeast
Temperature 12°C
Humidity 88%
Pressure 997 hPa
Visibility: 8000 m

METAR: ENSL 220420Z AUTO 11033KT 8000NDV FEW009/// SCT023/// BKN057/// 12/10 Q0997 W11/S5

Time: 06:52 (04:52 UTC)

Forecast

The report was made 12 hours and 40 minutes ago, at 16:12 UTC
Forecast valid from 21 at 16 UTC to 21 at 17 UTC
Wind 45 kt from the Southeast
Visibility: 9000 m
Scattered clouds at a height of 1000 ft
Broken clouds at a height of 3000 ft
Temporary
from 21 at 16 UTC to 21 at 17 UTC
Visibility: 4000 m
Broken clouds at a height of 800 ft
light rain, mist
Becoming
from 21 at 16 UTC to 21 at 17 UTC
Wind 30 kt from the Southeast

TAF: ENSL 211612Z 2116/2117 13045KT 9000 SCT010 BKN030 TEMPO 2116/2117 4000 -RA BR BKN008 BECMG 2116/2117 14030KT

Weather observations and forecasts of more than 4000 airports (METAR and TAF reports).

The available stations are represented by yellow and red dots on the map.

Hover mouse over dot to see the name of the station.

Then click to see weather observations and forecasts.

To change the map : click on the green buttons with a black cross to zoom in, on the green button with a dash to zoom out, or on the green arrows for adjacent maps.


METAR-TAF: